Time;durP1;ratioP1;P1;durP2;ratioP2;P2;SDS_P1;SDS_P2;PMS_P1;PMS_P2;Temp;Humidity;BMP_temperature;BMP_pressure;BME280_temperature;BME280_humidity;BME280_pressure;Samples;Min_cycle;Max_cycle;Signal;HPM_P1;HPM_P2
2023/11/28 00:00:32;;;;;;;0.60;0.60;;;;;;;-8.29;70.30;100030.94;5105420;28;20051;-65
2023/11/28 00:02:57;;;;;;;0.60;0.60;;;;;;;-8.32;70.41;100035.81;5103605;28;20032;-65
2023/11/28 00:05:23;;;;;;;0.63;0.63;;;;;;;-8.37;70.61;100027.13;5105483;28;20036;-65
2023/11/28 00:07:49;;;;;;;1.13;1.13;;;;;;;-8.36;70.35;100026.31;5105414;28;20044;-65
2023/11/28 00:10:14;;;;;;;0.60;0.60;;;;;;;-8.39;70.42;100029.53;5105076;28;20083;-64
2023/11/28 00:12:39;;;;;;;0.90;0.90;;;;;;;-8.40;70.40;100022.75;5112680;22;20051;-69
2023/11/28 00:15:05;;;;;;;0.70;0.70;;;;;;;-8.38;70.37;100026.25;5125279;28;20297;-69
2023/11/28 00:17:31;;;;;;;0.60;0.60;;;;;;;-8.44;70.49;100025.84;5125130;28;20023;-69
2023/11/28 00:19:56;;;;;;;1.95;1.23;;;;;;;-8.41;70.59;100030.19;5125666;28;20027;-69
2023/11/28 00:22:21;;;;;;;0.50;0.50;;;;;;;-8.39;70.62;100039.63;5125313;28;20061;-69
2023/11/28 00:24:47;;;;;;;0.60;0.60;;;;;;;-8.41;70.68;100027.69;5125362;28;20106;-69
2023/11/28 00:27:12;;;;;;;0.60;0.60;;;;;;;-8.47;70.51;100011.44;5143756;22;20064;-70
2023/11/28 00:29:37;;;;;;;1.65;1.13;;;;;;;-8.41;70.64;100023.53;5107037;28;20030;-70
2023/11/28 00:32:03;;;;;;;1.50;1.40;;;;;;;-8.38;70.48;100026.25;5106904;28;20023;-70
2023/11/28 00:34:29;;;;;;;0.60;0.60;;;;;;;-8.41;70.74;100025.16;5107318;28;20034;-68
2023/11/28 00:36:54;;;;;;;0.55;0.55;;;;;;;-8.48;70.58;100023.94;5111399;22;20047;-65
2023/11/28 00:39:20;;;;;;;3.40;1.00;;;;;;;-8.41;70.57;100031.09;5106786;28;20027;-65
2023/11/28 00:44:14;;;;;;;0.70;0.70;;;;;;;-8.44;70.52;100023.34;5082210;28;20078;-64
2023/11/28 00:46:41;;;;;;;0.63;0.63;;;;;;;-8.44;70.51;100020.81;5115412;23;20448;-68
2023/11/28 00:49:07;;;;;;;0.60;0.60;;;;;;;-8.50;70.58;100011.22;5129771;28;20035;-69
2023/11/28 00:51:32;;;;;;;1.63;1.52;;;;;;;-8.51;70.64;100011.13;5129495;28;20082;-68
2023/11/28 00:53:58;;;;;;;1.40;1.40;;;;;;;-8.51;70.70;100012.00;5129634;28;20045;-69
2023/11/28 00:56:23;;;;;;;0.60;0.60;;;;;;;-8.48;70.82;100002.13;5129424;28;20016;-69
2023/11/28 00:58:48;;;;;;;0.68;0.68;;;;;;;-8.47;70.74;100005.53;5134145;22;20073;-64
2023/11/28 01:01:14;;;;;;;1.83;1.73;;;;;;;-8.47;70.76;100008.94;5129136;28;20027;-64
2023/11/28 01:03:40;;;;;;;0.80;0.80;;;;;;;-8.43;70.87;100012.47;5129026;28;20034;-65
2023/11/28 01:06:07;;;;;;;0.90;0.90;;;;;;;-8.49;70.81;100007.06;5129120;28;20084;-65
2023/11/28 01:08:36;;;;;;;0.60;0.60;;;;;;;-8.50;70.80;100011.22;5129270;28;20028;-65
2023/11/28 01:11:02;;;;;;;2.35;1.40;;;;;;;-8.47;70.82;100011.44;5128399;28;20027;-65
2023/11/28 01:13:28;;;;;;;0.60;0.60;;;;;;;-8.47;70.80;100011.44;5110151;28;20023;-64
2023/11/28 01:15:54;;;;;;;0.60;0.60;;;;;;;-8.50;70.91;100015.41;5110456;28;20016;-64
2023/11/28 01:18:20;;;;;;;0.60;0.60;;;;;;;-8.51;70.68;100013.66;5122607;22;20039;-68
2023/11/28 01:20:45;;;;;;;0.57;0.57;;;;;;;-8.52;70.73;100012.78;5131792;22;20419;-65
2023/11/28 01:23:11;;;;;;;0.80;0.80;;;;;;;-8.56;70.80;100002.47;5128834;28;20032;-64
2023/11/28 01:25:36;;;;;;;0.70;0.70;;;;;;;-8.50;70.82;100020.44;5115848;22;20027;-70
2023/11/28 01:28:02;;;;;;;0.70;0.70;;;;;;;-8.52;70.72;100016.94;5110526;23;20048;-65
2023/11/28 01:30:27;;;;;;;0.60;0.60;;;;;;;-8.57;70.51;100008.25;5118406;22;20067;-65
2023/11/28 01:32:53;;;;;;;0.60;0.60;;;;;;;-8.58;70.55;100007.41;5107216;28;20022;-65
2023/11/28 01:35:18;;;;;;;0.60;0.60;;;;;;;-8.54;70.58;100024.41;5113041;23;20056;-69
2023/11/28 01:37:43;;;;;;;0.80;0.80;;;;;;;-8.67;70.93;99995.09;5118293;22;20041;-69
2023/11/28 01:40:12;;;;;;;0.60;0.60;;;;;;;-8.61;70.67;100003.03;5112502;22;20068;-65
2023/11/28 01:42:38;;;;;;;0.60;0.60;;;;;;;-8.56;70.79;100015.06;5105704;28;20027;-65
2023/11/28 01:45:05;;;;;;;0.60;0.60;;;;;;;-8.61;70.75;100017.28;5107537;28;20031;-65
2023/11/28 01:47:32;;;;;;;0.60;0.60;;;;;;;-8.63;70.84;100013.81;5105738;28;20027;-64
2023/11/28 01:49:58;;;;;;;0.63;0.63;;;;;;;-8.65;70.73;100018.75;5109924;28;20039;-64
2023/11/28 01:52:23;;;;;;;0.70;0.70;;;;;;;-8.69;70.85;100016.81;5128133;28;20023;-64
2023/11/28 01:54:49;;;;;;;0.85;0.85;;;;;;;-8.67;70.86;100019.44;5128392;28;20031;-65
2023/11/28 01:57:15;;;;;;;0.60;0.60;;;;;;;-8.64;70.89;100022.13;5126696;28;20020;-65
2023/11/28 01:59:42;;;;;;;0.60;0.60;;;;;;;-8.62;70.81;100020.56;5128301;28;20034;-64
2023/11/28 02:02:08;;;;;;;0.60;0.60;;;;;;;-8.68;70.99;100015.16;5127622;28;20026;-65
2023/11/28 02:04:34;;;;;;;0.60;0.60;;;;;;;-8.62;71.04;100020.56;5127626;28;20035;-65
2023/11/28 02:07:00;;;;;;;0.70;0.70;;;;;;;-8.67;70.83;100009.38;5128012;28;20023;-65
2023/11/28 02:09:26;;;;;;;0.70;0.70;;;;;;;-8.65;70.98;100013.72;5128161;28;20432;-65
2023/11/28 02:11:52;;;;;;;1.10;1.10;;;;;;;-8.65;70.94;100022.88;5127819;28;20032;-65
2023/11/28 02:14:17;;;;;;;0.70;0.70;;;;;;;-8.71;70.80;100016.72;5131808;22;20050;-69
2023/11/28 02:16:43;;;;;;;1.15;1.15;;;;;;;-8.71;70.75;100023.38;5132877;22;20583;-64
2023/11/28 02:19:08;;;;;;;0.60;0.60;;;;;;;-8.74;70.71;100016.50;5109449;28;20103;-64
2023/11/28 02:21:34;;;;;;;0.70;0.70;;;;;;;-8.74;70.57;100016.50;5133302;22;20063;-70
2023/11/28 02:26:26;;;;;;;0.60;0.60;;;;;;;-8.89;70.56;100001.31;5136180;22;20041;-65
2023/11/28 02:28:56;;;;;;;0.70;0.70;;;;;;;-8.87;70.46;100014.88;5130636;22;20124;-69
2023/11/28 02:33:51;;;;;;;0.55;0.55;;;;;;;-9.01;70.47;100010.59;5103212;28;20060;-64
2023/11/28 02:36:16;;;;;;;0.77;0.77;;;;;;;-9.10;70.67;100004.19;5103593;22;20109;-64
2023/11/28 02:38:41;;;;;;;0.75;0.75;;;;;;;-9.11;71.09;100005.00;5106148;28;20092;-65
2023/11/28 02:41:58;;;;;;;0.60;0.60;;;;;;;-9.12;70.92;100009.91;5091707;22;20064;-69
2023/11/28 02:44:23;;;;;;;0.70;0.70;;;;;;;-9.22;70.80;99996.72;5106607;22;20111;-66
2023/11/28 02:46:48;;;;;;;0.60;0.60;;;;;;;-9.18;71.22;100004.50;5104960;28;20024;-64
2023/11/28 02:49:14;;;;;;;0.60;0.60;;;;;;;-9.19;71.22;100001.09;5087867;28;20028;-64
2023/11/28 02:51:39;;;;;;;0.65;0.65;;;;;;;-9.19;71.10;100010.28;5105769;28;20044;-65
2023/11/28 02:54:04;;;;;;;0.68;0.68;;;;;;;-9.24;71.18;99995.78;5106778;28;20035;-64
2023/11/28 02:56:30;;;;;;;0.90;0.90;;;;;;;-9.26;71.18;99998.94;5108370;22;20180;-69
2023/11/28 02:58:56;;;;;;;0.60;0.60;;;;;;;-9.28;71.33;99998.84;5089347;23;20487;-68
2023/11/28 03:01:22;;;;;;;1.45;1.35;;;;;;;-9.26;71.51;100002.34;5056576;22;1163072;-64
2023/11/28 03:03:48;;;;;;;0.60;0.60;;;;;;;-9.28;71.41;99988.78;5115403;22;20050;-69
2023/11/28 03:06:13;;;;;;;0.60;0.60;;;;;;;-9.23;71.45;99984.94;5110918;22;20389;-64
2023/11/28 03:08:38;;;;;;;0.60;0.60;;;;;;;-9.26;71.51;99976.31;5105918;28;20039;-65
2023/11/28 03:11:04;;;;;;;0.63;0.63;;;;;;;-9.23;71.61;99974.00;5105938;28;20100;-65
2023/11/28 03:13:29;;;;;;;0.82;0.82;;;;;;;-9.16;71.53;99982.81;5106212;28;20024;-65
2023/11/28 03:15:55;;;;;;;0.60;0.60;;;;;;;-9.22;71.53;99953.97;5110260;22;20076;-68
2023/11/28 03:18:20;;;;;;;0.98;0.98;;;;;;;-9.24;71.70;99964.72;5110812;22;20052;-65
2023/11/28 03:20:45;;;;;;;0.63;0.63;;;;;;;-9.22;71.68;99964.03;5106022;28;20020;-63
2023/11/28 03:23:11;;;;;;;1.00;1.00;;;;;;;-9.17;71.74;99960.97;5105810;28;20515;-64
2023/11/28 03:25:36;;;;;;;2.50;1.35;;;;;;;-9.12;71.84;99967.16;5106132;28;20054;-65
2023/11/28 03:28:01;;;;;;;1.02;1.02;;;;;;;-9.18;71.93;99966.78;5106074;28;20032;-64
2023/11/28 03:30:27;;;;;;;0.60;0.60;;;;;;;-9.10;71.92;99955.53;5105972;28;20032;-65
2023/11/28 03:32:52;;;;;;;0.93;0.93;;;;;;;-9.09;71.91;99957.28;5105913;28;20028;-65
2023/11/28 03:35:18;;;;;;;0.70;0.70;;;;;;;-9.07;71.80;99952.38;5105137;28;20053;-65
2023/11/28 03:37:43;;;;;;;0.60;0.60;;;;;;;-9.10;71.73;99931.25;5105695;28;20089;-66
2023/11/28 03:40:09;;;;;;;4.10;3.35;;;;;;;-9.07;71.67;99934.75;5106101;28;20027;-65
2023/11/28 03:42:35;;;;;;;0.75;0.75;;;;;;;-9.00;71.81;99940.25;5105648;28;20024;-64
2023/11/28 03:45:03;;;;;;;0.60;0.60;;;;;;;-9.00;71.78;99944.41;5087647;28;20024;-64
2023/11/28 03:47:28;;;;;;;0.70;0.70;;;;;;;-9.05;71.69;99938.22;5110764;22;20048;-69
2023/11/28 03:52:22;;;;;;;0.60;0.60;;;;;;;-9.04;71.46;99925.72;5106423;22;20056;-64
2023/11/28 03:54:48;;;;;;;0.60;0.60;;;;;;;-9.00;71.71;99935.22;5106742;28;20028;-65
2023/11/28 03:57:13;;;;;;;0.60;0.60;;;;;;;-9.09;71.63;99917.91;5104694;28;20452;-64
2023/11/28 03:59:39;;;;;;;0.73;0.73;;;;;;;-9.06;71.64;99921.41;5105576;28;20028;-65
2023/11/28 04:02:04;;;;;;;1.67;1.48;;;;;;;-9.02;71.75;99929.22;5105788;28;20031;-64
2023/11/28 04:04:30;;;;;;;0.60;0.60;;;;;;;-9.02;71.83;99926.72;5087271;28;20038;-65
2023/11/28 04:06:55;;;;;;;0.90;0.90;;;;;;;-9.00;71.64;99924.28;5105631;28;20027;-65
2023/11/28 04:09:21;;;;;;;1.13;1.13;;;;;;;-9.02;71.73;99919.16;5105098;28;20031;-65
2023/11/28 04:11:46;;;;;;;0.60;0.60;;;;;;;-9.08;71.89;99906.22;5104913;28;20028;-64
2023/11/28 04:14:11;;;;;;;0.60;0.60;;;;;;;-9.09;71.78;99919.56;5105235;28;20389;-65
2023/11/28 04:16:37;;;;;;;0.60;0.60;;;;;;;-9.07;72.00;99918.00;5105183;28;20028;-65
2023/11/28 04:19:02;;;;;;;0.55;0.55;;;;;;;-9.08;72.19;99921.31;5104894;28;20038;-64
2023/11/28 04:21:28;;;;;;;0.70;0.70;;;;;;;-9.12;72.16;99920.22;5104908;28;20043;-65
2023/11/28 04:23:53;;;;;;;0.88;0.88;;;;;;;-9.19;72.11;99909.69;5104646;28;20115;-65
2023/11/28 04:26:19;;;;;;;0.60;0.60;;;;;;;-9.18;72.29;99914.81;5080527;22;20052;-68
2023/11/28 04:28:44;;;;;;;0.70;0.70;;;;;;;-9.22;72.20;99906.19;5117497;22;20044;-64
2023/11/28 04:31:17;;;;;;;0.60;0.60;;;;;;;-9.22;72.25;99916.25;5101369;28;20141;-64
2023/11/28 04:33:42;;;;;;;0.60;0.60;;;;;;;-9.27;72.29;99900.03;5107642;22;20100;-69
2023/11/28 04:36:08;;;;;;;0.80;0.80;;;;;;;-9.32;72.20;99893.81;5087100;28;20055;-69
2023/11/28 04:38:33;;;;;;;0.68;0.68;;;;;;;-9.28;72.49;99898.25;5114611;22;20048;-68
2023/11/28 04:40:58;;;;;;;0.57;0.57;;;;;;;-9.30;72.56;99912.41;5105020;28;20038;-69
2023/11/28 04:43:24;;;;;;;0.70;0.70;;;;;;;-9.33;72.51;99902.16;5105236;28;20547;-68
2023/11/28 04:45:49;;;;;;;1.27;1.13;;;;;;;-9.52;72.55;99870.78;5105278;28;20028;-68
2023/11/28 04:48:14;;;;;;;0.60;0.60;;;;;;;-9.41;72.66;99888.22;5104881;28;20490;-68
2023/11/28 04:50:40;;;;;;;0.63;0.63;;;;;;;-9.43;72.69;99878.06;5110182;22;20088;-64
2023/11/28 04:53:05;;;;;;;0.80;0.80;;;;;;;-9.42;72.91;99879.78;5104441;28;20028;-64
2023/11/28 04:55:30;;;;;;;0.60;0.60;;;;;;;-9.42;73.14;99882.31;5086197;28;20020;-64
2023/11/28 04:57:56;;;;;;;0.50;0.50;;;;;;;-9.43;73.12;99884.72;5104962;28;20028;-65
2023/11/28 05:00:21;;;;;;;0.50;0.50;;;;;;;-9.63;73.17;99847.50;5104595;28;20035;-64
2023/11/28 05:02:47;;;;;;;0.70;0.70;;;;;;;-9.51;73.21;99875.06;5104651;28;20024;-64
2023/11/28 05:05:12;;;;;;;0.52;0.52;;;;;;;-9.51;72.99;99872.56;5108536;22;20135;-68
2023/11/28 05:07:37;;;;;;;0.60;0.60;;;;;;;-9.64;72.97;99844.88;5098106;23;20048;-68
2023/11/28 05:10:03;;;;;;;0.60;0.60;;;;;;;-9.63;73.16;99844.13;5109258;22;20040;-66
2023/11/28 05:12:29;;;;;;;1.65;1.35;;;;;;;-9.56;73.27;99861.34;5104393;28;20495;-66
2023/11/28 05:14:54;;;;;;;0.80;0.80;;;;;;;-9.57;73.32;99852.06;5092672;23;20044;-68
2023/11/28 05:17:20;;;;;;;0.65;0.65;;;;;;;-9.58;73.15;99856.22;5114113;22;20085;-68
2023/11/28 05:19:45;;;;;;;0.70;0.70;;;;;;;-9.55;73.08;99853.00;5108676;22;20044;-67
2023/11/28 05:22:10;;;;;;;0.60;0.60;;;;;;;-9.54;73.29;99861.44;5104381;28;20031;-66
2023/11/28 05:24:36;;;;;;;1.35;1.25;;;;;;;-9.58;73.24;99853.69;5112278;22;20059;-68
2023/11/28 05:27:01;;;;;;;0.60;0.60;;;;;;;-9.72;73.23;99827.69;5107421;22;20058;-68
2023/11/28 05:31:55;;;;;;;0.80;0.80;;;;;;;-9.54;73.01;99848.88;5103587;22;20583;-65
2023/11/28 05:34:21;;;;;;;0.60;0.60;;;;;;;-9.78;73.19;99808.84;5088624;28;20024;-64
2023/11/28 05:36:46;;;;;;;0.93;0.93;;;;;;;-9.62;73.21;99840.84;5107633;28;20027;-65
2023/11/28 05:39:12;;;;;;;0.75;0.75;;;;;;;-9.61;73.32;99852.63;5107793;28;20039;-65
2023/11/28 05:41:37;;;;;;;0.65;0.65;;;;;;;-9.60;73.12;99847.69;5107207;28;20032;-65
2023/11/28 05:44:04;;;;;;;0.60;0.60;;;;;;;-9.58;73.27;99847.78;5106404;28;20031;-66
2023/11/28 05:46:30;;;;;;;0.90;0.90;;;;;;;-9.63;73.24;99831.56;5107168;28;20020;-66
2023/11/28 05:48:55;;;;;;;0.60;0.60;;;;;;;-9.66;73.17;99827.19;5089368;28;20058;-66
2023/11/28 05:51:20;;;;;;;0.52;0.52;;;;;;;-9.71;73.05;99826.91;5107402;28;20035;-66
2023/11/28 05:53:46;;;;;;;0.60;0.60;;;;;;;-9.76;73.38;99818.19;5096179;23;20052;-68
2023/11/28 05:56:12;;;;;;;0.70;0.70;;;;;;;-9.77;72.95;99818.09;5117218;22;20523;-68
2023/11/28 05:58:37;;;;;;;0.60;0.60;;;;;;;-9.78;73.09;99817.25;5092638;23;20048;-66
2023/11/28 06:01:03;;;;;;;0.50;0.50;;;;;;;-9.79;72.99;99820.53;5087958;28;20016;-65
2023/11/28 06:03:28;;;;;;;0.90;0.90;;;;;;;-9.77;72.97;99820.63;5107430;28;20024;-66
2023/11/28 06:05:54;;;;;;;0.60;0.60;;;;;;;-9.80;72.96;99803.72;5099607;22;20052;-68
2023/11/28 06:08:19;;;;;;;0.57;0.57;;;;;;;-9.83;72.82;99803.53;5110690;22;20056;-65
2023/11/28 06:10:48;;;;;;;3.92;3.70;;;;;;;-9.83;72.80;99791.84;5100740;22;20053;-68
2023/11/28 06:13:13;;;;;;;0.70;0.70;;;;;;;-9.88;72.82;99812.41;5063444;28;20041;-66
2023/11/28 06:15:38;;;;;;;0.70;0.70;;;;;;;-9.91;72.95;99809.69;5073325;22;20063;-68
2023/11/28 06:18:04;;;;;;;0.73;0.73;;;;;;;-9.92;73.11;99806.34;5074873;22;20057;-68
2023/11/28 06:20:29;;;;;;;0.60;0.60;;;;;;;-9.93;72.83;99817.13;5127370;22;20383;-67
2023/11/28 06:22:55;;;;;;;0.70;0.70;;;;;;;-9.89;72.95;99821.59;5046729;28;20036;-69
2023/11/28 06:25:20;;;;;;;0.60;0.60;;;;;;;-9.91;72.94;99814.72;5066356;28;20029;-69
2023/11/28 06:27:46;;;;;;;0.60;0.60;;;;;;;-9.90;73.05;99822.34;5048015;28;20020;-69
2023/11/28 06:30:12;;;;;;;0.70;0.70;;;;;;;-9.91;72.76;99819.75;5046889;28;20084;-68
2023/11/28 06:32:38;;;;;;;0.60;0.60;;;;;;;-9.89;73.01;99821.59;5064994;28;20013;-68
2023/11/28 06:35:04;;;;;;;0.60;0.60;;;;;;;-9.93;72.80;99817.13;5065183;28;20496;-69
2023/11/28 06:37:29;;;;;;;0.60;0.60;;;;;;;-9.92;72.83;99818.88;5047107;28;20084;-68
2023/11/28 06:39:55;;;;;;;0.70;0.70;;;;;;;-9.92;72.75;99818.00;5065961;28;20068;-68
2023/11/28 06:42:21;;;;;;;0.70;0.70;;;;;;;-9.99;72.78;99820.13;5046588;28;20025;-68
2023/11/28 06:44:46;;;;;;;0.60;0.60;;;;;;;-9.98;72.62;99819.34;5047223;28;20114;-68
2023/11/28 06:47:12;;;;;;;0.63;0.63;;;;;;;-10.07;72.70;99798.66;5046980;28;20393;-68
2023/11/28 06:49:37;;;;;;;0.60;0.60;;;;;;;-10.05;72.73;99802.16;5065274;28;20021;-68
2023/11/28 06:52:03;;;;;;;0.70;0.70;;;;;;;-10.14;72.40;99796.53;5046812;28;20025;-69
2023/11/28 06:54:29;;;;;;;2.60;1.45;;;;;;;-10.12;72.37;99803.38;5064877;28;20021;-68
2023/11/28 06:56:55;;;;;;;0.70;0.70;;;;;;;-10.10;72.38;99806.88;5048148;28;20067;-68
2023/11/28 06:59:20;;;;;;;0.70;0.70;;;;;;;-10.17;72.35;99792.16;5048600;28;20052;-68
2023/11/28 07:01:45;;;;;;;0.68;0.68;;;;;;;-10.12;72.43;99803.38;5048197;23;20069;-70
2023/11/28 07:04:11;;;;;;;0.60;0.60;;;;;;;-10.15;72.26;99794.78;5073167;22;20052;-68
2023/11/28 07:06:36;;;;;;;0.50;0.50;;;;;;;-10.21;72.30;99785.22;5048226;28;20033;-68
2023/11/28 07:09:03;;;;;;;1.00;1.00;;;;;;;-10.20;72.44;99799.50;5065902;28;20021;-68
2023/11/28 07:11:30;;;;;;;0.85;0.85;;;;;;;-10.15;72.47;99783.09;5048146;28;20067;-69
2023/11/28 07:13:55;;;;;;;0.90;0.90;;;;;;;-10.14;72.19;99792.38;5056044;23;20041;-68
2023/11/28 07:16:21;;;;;;;0.60;0.60;;;;;;;-10.16;72.44;99808.13;5066184;28;20029;-68
2023/11/28 07:18:46;;;;;;;0.80;0.80;;;;;;;-10.18;72.26;99784.53;5056636;22;20053;-69
2023/11/28 07:21:12;;;;;;;0.60;0.60;;;;;;;-10.14;72.51;99789.00;5046188;28;20021;-68
2023/11/28 07:23:38;;;;;;;0.60;0.60;;;;;;;-10.21;72.15;99780.19;5046090;28;20045;-68
2023/11/28 07:26:07;;;;;;;0.60;0.60;;;;;;;-10.26;72.15;99762.34;5065969;28;20100;-68
2023/11/28 07:28:33;;;;;;;0.60;0.60;;;;;;;-10.19;72.19;99763.56;5047985;28;20113;-68
2023/11/28 07:30:58;;;;;;;0.65;0.65;;;;;;;-10.20;72.14;99772.78;5051448;23;20167;-70
2023/11/28 07:33:24;;;;;;;1.25;0.82;;;;;;;-10.24;72.37;99768.31;5052257;22;20046;-65
2023/11/28 07:35:50;;;;;;;0.60;0.60;;;;;;;-10.17;72.38;99767.06;5045852;28;20041;-65
2023/11/28 07:38:15;;;;;;;0.68;0.68;;;;;;;-10.24;72.31;99743.19;5044170;28;20033;-65
2023/11/28 07:40:41;;;;;;;0.88;0.88;;;;;;;-10.11;72.34;99756.56;5045730;28;20077;-65
2023/11/28 07:43:08;;;;;;;0.60;0.60;;;;;;;-10.04;72.41;99755.28;5045470;28;20033;-66
2023/11/28 07:45:33;;;;;;;0.60;0.60;;;;;;;-10.03;72.12;99747.84;5045703;28;20037;-66
2023/11/28 07:47:58;;;;;;;0.80;0.80;;;;;;;-10.02;72.28;99742.09;5045741;28;20079;-66
2023/11/28 07:50:24;;;;;;;0.52;0.52;;;;;;;-10.02;72.44;99737.06;5044238;28;20179;-64
2023/11/28 07:52:51;;;;;;;0.55;0.55;;;;;;;-9.72;72.92;99746.41;5045386;28;20085;-66
2023/11/28 07:55:16;;;;;;;0.60;0.60;;;;;;;-9.47;72.96;99732.84;5050436;23;20069;-68
2023/11/28 07:57:42;;;;;;;3.70;3.45;;;;;;;-9.19;72.40;99736.16;5051920;22;20088;-68
2023/11/28 08:00:08;;;;;;;0.60;0.60;;;;;;;-9.08;71.89;99725.13;5043820;28;20060;-67
2023/11/28 08:02:34;;;;;;;0.93;0.93;;;;;;;-8.99;71.48;99733.19;5045665;28;20031;-67
2023/11/28 08:05:02;;;;;;;0.60;0.60;;;;;;;-9.08;70.82;99727.63;5065379;28;20104;-68
2023/11/28 08:07:28;;;;;;;0.60;0.60;;;;;;;-9.23;71.16;99703.28;5047273;28;20017;-67
2023/11/28 08:09:54;;;;;;;1.70;1.15;;;;;;;-9.69;70.84;99661.16;5084204;22;20128;-67
2023/11/28 08:12:19;;;;;;;0.60;0.60;;;;;;;-9.42;71.15;99710.53;5062775;28;20545;-68
2023/11/28 08:17:14;;;;;;;0.70;0.70;;;;;;;-9.49;71.66;99706.75;5093975;22;20060;-68
2023/11/28 08:19:39;;;;;;;0.60;0.60;;;;;;;-9.57;71.25;99706.31;5051510;23;20058;-69
2023/11/28 08:22:04;;;;;;;0.85;0.85;;;;;;;-9.64;71.40;99700.03;5052142;22;20468;-68
2023/11/28 08:24:30;;;;;;;0.80;0.80;;;;;;;-9.68;71.25;99689.69;5058218;23;20053;-70
2023/11/28 08:26:55;;;;;;;0.80;0.80;;;;;;;-9.63;71.39;99680.81;5071773;22;20087;-68
2023/11/28 08:29:20;;;;;;;0.82;0.82;;;;;;;-9.82;71.35;99659.56;5065025;28;20055;-67
2023/11/28 08:31:46;;;;;;;1.35;1.25;;;;;;;-9.65;71.78;99692.38;5069990;23;20020;-70
2023/11/28 08:34:11;;;;;;;0.77;0.77;;;;;;;-9.49;71.57;99694.19;5045007;28;20026;-70
2023/11/28 08:36:36;;;;;;;0.50;0.50;;;;;;;-9.43;71.44;99686.16;5051631;22;20045;-68
2023/11/28 08:39:05;;;;;;;0.70;0.70;;;;;;;-9.19;71.72;99688.38;5052342;23;20080;-70
2023/11/28 08:41:30;;;;;;;0.60;0.60;;;;;;;-8.75;71.86;99685.09;5044976;28;20033;-71
2023/11/28 08:43:55;;;;;;;0.68;0.68;;;;;;;-8.47;71.52;99681.63;5045365;28;20048;-70
2023/11/28 08:46:21;;;;;;;0.60;0.60;;;;;;;-8.05;71.32;99684.69;5027440;28;20060;-71
2023/11/28 08:48:46;;;;;;;1.40;0.98;;;;;;;-7.84;70.76;99664.81;5045124;28;20081;-70
2023/11/28 08:51:11;;;;;;;0.60;0.60;;;;;;;-7.80;70.03;99669.25;5045157;28;20083;-71
2023/11/28 08:53:37;;;;;;;0.70;0.70;;;;;;;-7.84;69.57;99687.50;5059170;22;20050;-70
2023/11/28 08:56:02;;;;;;;0.60;0.60;;;;;;;-8.02;69.23;99673.13;5025362;28;20044;-70
2023/11/28 08:58:27;;;;;;;1.95;1.85;;;;;;;-8.17;68.96;99678.19;5024940;28;20041;-70
2023/11/28 09:00:53;;;;;;;0.90;0.90;;;;;;;-8.22;68.94;99675.44;5007558;28;20090;-70
2023/11/28 09:03:20;;;;;;;0.70;0.70;;;;;;;-8.34;68.79;99689.88;5025371;28;20032;-70
2023/11/28 09:05:46;;;;;;;0.90;0.70;;;;;;;-8.46;69.22;99665.72;5044031;23;20054;-65
2023/11/28 09:08:12;;;;;;;0.70;0.70;;;;;;;-8.51;69.55;99649.47;5048600;28;20021;-65
2023/11/28 09:10:37;;;;;;;0.60;0.60;;;;;;;-8.14;70.39;99669.94;5056884;22;20132;-69
2023/11/28 09:13:03;;;;;;;0.75;0.70;;;;;;;-7.78;69.93;99655.06;5050614;28;20028;-69
2023/11/28 09:15:28;;;;;;;0.60;0.60;;;;;;;-7.60;68.95;99671.97;5068822;28;20401;-71
2023/11/28 09:17:53;;;;;;;0.50;0.50;;;;;;;-7.60;68.43;99666.91;5050525;28;20064;-70
2023/11/28 09:20:19;;;;;;;0.75;0.75;;;;;;;-7.53;68.61;99656.38;5068705;28;20021;-70
2023/11/28 09:22:45;;;;;;;0.70;0.70;;;;;;;-7.54;68.03;99649.59;5069238;28;20020;-70
2023/11/28 09:25:10;;;;;;;0.60;0.60;;;;;;;-7.56;68.15;99668.84;5079790;22;20080;-71
2023/11/28 09:27:36;;;;;;;0.60;0.60;;;;;;;-7.70;67.17;99655.50;5048022;28;20025;-71
2023/11/28 09:30:01;;;;;;;0.70;0.70;;;;;;;-7.82;67.36;99650.66;5030501;28;20033;-70
2023/11/28 09:32:27;;;;;;;2.78;1.17;;;;;;;-7.73;67.89;99655.34;5048186;28;20029;-70
2023/11/28 09:34:53;;;;;;;0.60;0.60;;;;;;;-7.49;68.28;99649.84;5048275;28;20060;-70
2023/11/28 09:37:18;;;;;;;1.02;1.02;;;;;;;-7.16;68.63;99638.88;5055166;22;20062;-67
2023/11/28 09:39:43;;;;;;;0.60;0.60;;;;;;;-6.57;68.28;99634.22;5057100;23;20052;-70
2023/11/28 09:42:13;;;;;;;0.70;0.70;;;;;;;-6.26;67.39;99630.59;5067059;22;20061;-71
2023/11/28 09:44:42;;;;;;;0.50;0.50;;;;;;;-5.77;67.06;99617.59;5054235;22;20095;-67
2023/11/28 09:47:10;;;;;;;4.88;1.48;;;;;;;-5.63;64.85;99608.09;5047978;28;20018;-66
2023/11/28 09:49:43;;;;;;;0.50;0.50;;;;;;;-5.49;64.38;99619.69;5046655;28;20418;-66
2023/11/28 09:52:09;;;;;;;0.60;0.60;;;;;;;-5.58;63.29;99616.75;5057780;23;20065;-70
2023/11/28 09:54:38;;;;;;;1.48;1.08;;;;;;;-5.45;63.58;99613.09;5071946;22;20041;-65
2023/11/28 09:57:05;;;;;;;0.70;0.70;;;;;;;-5.32;62.64;99617.03;5081713;22;20060;-65
2023/11/28 09:59:35;;;;;;;0.50;0.50;;;;;;;-5.19;62.79;99604.91;5049336;22;20119;-70
2023/11/28 10:02:03;;;;;;;0.60;0.60;;;;;;;-5.26;62.24;99602.13;5048079;28;20022;-71
2023/11/28 10:04:28;;;;;;;0.50;0.50;;;;;;;-5.32;61.83;99604.38;5047763;28;20056;-71
2023/11/28 10:06:53;;;;;;;0.60;0.60;;;;;;;-5.49;62.08;99594.38;5047817;28;20025;-70
2023/11/28 10:09:20;;;;;;;0.90;0.90;;;;;;;-5.37;63.13;99590.66;5046430;28;20021;-71
2023/11/28 10:11:47;;;;;;;0.95;0.80;;;;;;;-5.14;62.44;99590.75;5054565;22;20076;-66
2023/11/28 10:14:13;;;;;;;0.60;0.60;;;;;;;-5.34;61.64;99585.72;5047409;28;20534;-66
2023/11/28 10:16:51;;;;;;;0.60;0.60;;;;;;;-5.58;61.90;99599.03;5045900;28;20089;-67
2023/11/28 10:19:17;;;;;;;0.82;0.82;;;;;;;-5.74;62.43;99592.44;5046246;28;20089;-66
2023/11/28 10:21:44;;;;;;;0.60;0.60;;;;;;;-5.81;62.66;99588.78;5049311;28;20029;-66
2023/11/28 10:24:09;;;;;;;0.60;0.60;;;;;;;-5.74;62.79;99583.22;5067359;28;20017;-67
2023/11/28 10:26:38;;;;;;;1.20;0.93;;;;;;;-5.75;62.62;99578.94;5066854;28;20051;-67
2023/11/28 10:29:07;;;;;;;1.33;1.33;;;;;;;-5.99;62.11;99577.03;5061516;22;20057;-66
2023/11/28 10:31:40;;;;;;;0.75;0.75;;;;;;;-6.27;62.38;99578.34;5046061;28;20064;-66
2023/11/28 10:34:09;;;;;;;0.60;0.60;;;;;;;-6.47;62.88;99553.00;5065529;22;20563;31
2023/11/28 10:39:08;;;;;;;0.60;0.60;;;;;;;-6.43;64.04;99571.72;5059586;22;20057;-70
2023/11/28 10:41:34;;;;;;;0.80;0.80;;;;;;;-6.40;63.77;99576.91;5058576;23;20048;-67
2023/11/28 10:44:00;;;;;;;0.95;0.90;;;;;;;-6.30;64.58;99582.38;5066407;28;20020;-67
2023/11/28 10:46:27;;;;;;;0.70;0.70;;;;;;;-6.23;64.02;99577.69;5064102;28;20024;-67
2023/11/28 10:48:53;;;;;;;0.80;0.80;;;;;;;-6.18;63.61;99572.00;5066235;28;20028;-67
2023/11/28 10:51:20;;;;;;;0.60;0.60;;;;;;;-6.11;63.28;99559.69;5055685;22;20049;-71
2023/11/28 10:53:48;;;;;;;0.70;0.70;;;;;;;-6.06;63.61;99554.84;5073582;22;20084;-71
2023/11/28 10:56:15;;;;;;;0.65;0.65;;;;;;;-5.63;62.87;99552.44;5065767;22;20405;-67
2023/11/28 10:58:44;;;;;;;0.70;0.70;;;;;;;-5.08;61.19;99558.13;5066097;28;20020;-67
2023/11/28 11:01:10;;;;;;;0.60;0.60;;;;;;;-4.63;59.67;99556.50;5066038;28;20029;-67
2023/11/28 11:03:38;;;;;;;0.60;0.60;;;;;;;-4.20;58.86;99564.03;5065891;28;20048;-67
2023/11/28 11:06:05;;;;;;;0.50;0.50;;;;;;;-3.43;58.23;99557.47;5066017;28;20025;-66
2023/11/28 11:08:31;;;;;;;0.60;0.60;;;;;;;-2.97;57.11;99531.91;5048122;28;20032;-67
2023/11/28 11:10:57;;;;;;;0.68;0.68;;;;;;;-2.43;56.76;99545.44;5065994;28;20021;-67
2023/11/28 11:13:46;;;;;;;0.60;0.60;;;;;;;-1.88;55.47;99540.22;5072069;22;20035;-71
2023/11/28 11:16:20;;;;;;;0.50;0.50;;;;;;;-1.59;55.16;99539.31;5051399;23;20072;-65
2023/11/28 11:18:49;;;;;;;0.50;0.50;;;;;;;-1.97;54.45;99532.34;5047849;28;20033;-66
2023/11/28 11:21:33;;;;;;;0.50;0.50;;;;;;;-3.11;55.50;99538.25;5065839;28;20028;-66
2023/11/28 11:24:00;;;;;;;0.40;0.40;;;;;;;-4.15;57.58;99537.16;5065457;28;20020;-64
2023/11/28 11:26:39;;;;;;;1.02;0.98;;;;;;;-4.81;59.13;99532.19;5065790;28;20031;-65
2023/11/28 11:29:23;;;;;;;0.52;0.52;;;;;;;-5.27;60.09;99534.56;5065365;28;20025;-63
2023/11/28 11:32:14;;;;;;;0.65;0.65;;;;;;;-5.71;61.06;99511.66;5047495;28;20025;-65
2023/11/28 11:34:47;;;;;;;0.60;0.60;;;;;;;-5.82;61.54;99533.97;5055029;28;20057;-65
2023/11/28 11:37:21;;;;;;;1.75;1.20;;;;;;;-6.10;61.81;99515.06;5076500;22;20072;-71
2023/11/28 11:39:48;;;;;;;2.25;1.95;;;;;;;-6.25;62.18;99523.72;5065734;22;20069;-69
2023/11/28 11:42:19;;;;;;;0.65;0.65;;;;;;;-6.37;62.72;99530.72;5062612;23;20115;-66
2023/11/28 11:45:19;;;;;;;1.83;1.13;;;;;;;-6.38;63.17;99522.28;5072702;22;20485;-69